sensor_id;sensor_type;location;lat;lon;timestamp;P1;durP1;ratioP1;P2;durP2;ratioP2
77016;SDS011;65949;53.132;17.930;2024-02-23T00:01:05;14.60;;;7.90;;
77016;SDS011;65949;53.132;17.930;2024-02-23T00:03:49;12.90;;;6.80;;
77016;SDS011;65949;53.132;17.930;2024-02-23T00:06:16;13.00;;;6.50;;
77016;SDS011;65949;53.132;17.930;2024-02-23T00:08:43;16.50;;;7.50;;
77016;SDS011;65949;53.132;17.930;2024-02-23T00:11:10;15.50;;;7.80;;
77016;SDS011;65949;53.132;17.930;2024-02-23T00:13:36;12.60;;;6.50;;
77016;SDS011;65949;53.132;17.930;2024-02-23T00:16:03;15.10;;;6.90;;
77016;SDS011;65949;53.132;17.930;2024-02-23T00:18:30;13.20;;;6.40;;
77016;SDS011;65949;53.132;17.930;2024-02-23T00:20:57;12.40;;;6.40;;
77016;SDS011;65949;53.132;17.930;2024-02-23T00:23:24;12.00;;;6.20;;
77016;SDS011;65949;53.132;17.930;2024-02-23T00:25:50;13.30;;;6.80;;
77016;SDS011;65949;53.132;17.930;2024-02-23T00:28:17;14.20;;;6.70;;
77016;SDS011;65949;53.132;17.930;2024-02-23T00:30:44;14.30;;;6.60;;
77016;SDS011;65949;53.132;17.930;2024-02-23T00:33:11;13.20;;;5.90;;
77016;SDS011;65949;53.132;17.930;2024-02-23T00:35:37;13.20;;;6.70;;
77016;SDS011;65949;53.132;17.930;2024-02-23T00:38:04;13.00;;;6.70;;
77016;SDS011;65949;53.132;17.930;2024-02-23T00:40:31;12.80;;;6.30;;
77016;SDS011;65949;53.132;17.930;2024-02-23T00:42:58;12.70;;;6.60;;
77016;SDS011;65949;53.132;17.930;2024-02-23T00:45:26;14.00;;;6.50;;
77016;SDS011;65949;53.132;17.930;2024-02-23T00:47:53;12.30;;;6.10;;
77016;SDS011;65949;53.132;17.930;2024-02-23T00:50:20;12.90;;;6.30;;
77016;SDS011;65949;53.132;17.930;2024-02-23T00:52:47;11.40;;;6.00;;
77016;SDS011;65949;53.132;17.930;2024-02-23T00:55:13;12.20;;;5.80;;
77016;SDS011;65949;53.132;17.930;2024-02-23T00:57:40;12.20;;;6.00;;
77016;SDS011;65949;53.132;17.930;2024-02-23T01:00:07;12.50;;;6.30;;
77016;SDS011;65949;53.132;17.930;2024-02-23T01:02:35;11.90;;;5.90;;
77016;SDS011;65949;53.132;17.930;2024-02-23T01:05:02;13.10;;;5.80;;
77016;SDS011;65949;53.132;17.930;2024-02-23T01:07:30;10.90;;;5.50;;
77016;SDS011;65949;53.132;17.930;2024-02-23T01:09:56;11.70;;;5.60;;
77016;SDS011;65949;53.132;17.930;2024-02-23T01:12:25;11.20;;;5.60;;
77016;SDS011;65949;53.132;17.930;2024-02-23T01:14:51;12.00;;;6.10;;
77016;SDS011;65949;53.132;17.930;2024-02-23T01:17:18;11.90;;;5.80;;
77016;SDS011;65949;53.132;17.930;2024-02-23T01:19:45;9.50;;;4.80;;
77016;SDS011;65949;53.132;17.930;2024-02-23T01:22:11;12.60;;;5.60;;
77016;SDS011;65949;53.132;17.930;2024-02-23T01:24:38;11.00;;;5.90;;
77016;SDS011;65949;53.132;17.930;2024-02-23T01:27:05;12.70;;;5.90;;
77016;SDS011;65949;53.132;17.930;2024-02-23T01:29:32;12.60;;;6.30;;
77016;SDS011;65949;53.132;17.930;2024-02-23T01:31:59;12.40;;;6.30;;
77016;SDS011;65949;53.132;17.930;2024-02-23T01:34:26;11.20;;;5.70;;
77016;SDS011;65949;53.132;17.930;2024-02-23T01:36:53;10.80;;;5.70;;
77016;SDS011;65949;53.132;17.930;2024-02-23T01:39:19;10.90;;;5.30;;
77016;SDS011;65949;53.132;17.930;2024-02-23T01:41:46;12.20;;;6.20;;
77016;SDS011;65949;53.132;17.930;2024-02-23T01:44:13;11.10;;;5.20;;
77016;SDS011;65949;53.132;17.930;2024-02-23T01:46:41;11.00;;;5.60;;
77016;SDS011;65949;53.132;17.930;2024-02-23T01:49:08;12.20;;;5.70;;
77016;SDS011;65949;53.132;17.930;2024-02-23T01:51:35;11.90;;;5.70;;
77016;SDS011;65949;53.132;17.930;2024-02-23T01:54:02;12.80;;;6.10;;
77016;SDS011;65949;53.132;17.930;2024-02-23T01:56:30;11.70;;;5.90;;
77016;SDS011;65949;53.132;17.930;2024-02-23T01:58:59;12.60;;;5.40;;
77016;SDS011;65949;53.132;17.930;2024-02-23T02:01:26;10.30;;;5.50;;
77016;SDS011;65949;53.132;17.930;2024-02-23T02:03:53;12.50;;;5.90;;
77016;SDS011;65949;53.132;17.930;2024-02-23T02:06:20;11.70;;;5.60;;
77016;SDS011;65949;53.132;17.930;2024-02-23T02:08:47;10.30;;;5.40;;
77016;SDS011;65949;53.132;17.930;2024-02-23T02:11:13;11.60;;;5.70;;
77016;SDS011;65949;53.132;17.930;2024-02-23T02:13:41;11.60;;;5.80;;
77016;SDS011;65949;53.132;17.930;2024-02-23T02:16:08;10.70;;;5.00;;
77016;SDS011;65949;53.132;17.930;2024-02-23T02:18:34;10.10;;;4.80;;
77016;SDS011;65949;53.132;17.930;2024-02-23T02:21:01;11.10;;;5.20;;
77016;SDS011;65949;53.132;17.930;2024-02-23T02:23:28;10.00;;;4.90;;
77016;SDS011;65949;53.132;17.930;2024-02-23T02:25:55;10.00;;;5.50;;
77016;SDS011;65949;53.132;17.930;2024-02-23T02:28:23;9.70;;;5.20;;
77016;SDS011;65949;53.132;17.930;2024-02-23T02:30:51;9.80;;;5.10;;
77016;SDS011;65949;53.132;17.930;2024-02-23T02:33:19;11.70;;;4.90;;
77016;SDS011;65949;53.132;17.930;2024-02-23T02:35:47;9.60;;;4.60;;
77016;SDS011;65949;53.132;17.930;2024-02-23T02:38:14;11.70;;;5.20;;
77016;SDS011;65949;53.132;17.930;2024-02-23T02:40:41;10.50;;;5.30;;
77016;SDS011;65949;53.132;17.930;2024-02-23T02:43:08;9.10;;;4.90;;
77016;SDS011;65949;53.132;17.930;2024-02-23T02:45:34;10.60;;;5.00;;
77016;SDS011;65949;53.132;17.930;2024-02-23T02:48:01;8.30;;;3.90;;
77016;SDS011;65949;53.132;17.930;2024-02-23T02:50:29;10.40;;;4.90;;
77016;SDS011;65949;53.132;17.930;2024-02-23T02:52:56;9.50;;;4.80;;
77016;SDS011;65949;53.132;17.930;2024-02-23T02:55:23;10.30;;;4.90;;
77016;SDS011;65949;53.132;17.930;2024-02-23T02:57:50;9.80;;;4.30;;
77016;SDS011;65949;53.132;17.930;2024-02-23T03:00:16;9.60;;;4.90;;
77016;SDS011;65949;53.132;17.930;2024-02-23T03:02:43;8.30;;;4.10;;
77016;SDS011;65949;53.132;17.930;2024-02-23T03:05:10;9.70;;;4.60;;
77016;SDS011;65949;53.132;17.930;2024-02-23T03:07:37;8.50;;;4.30;;
77016;SDS011;65949;53.132;17.930;2024-02-23T03:10:03;9.50;;;4.60;;
77016;SDS011;65949;53.132;17.930;2024-02-23T03:12:31;8.60;;;3.90;;
77016;SDS011;65949;53.132;17.930;2024-02-23T03:14:58;9.10;;;4.20;;
77016;SDS011;65949;53.132;17.930;2024-02-23T03:17:24;8.20;;;4.00;;
77016;SDS011;65949;53.132;17.930;2024-02-23T03:19:51;8.40;;;3.70;;
77016;SDS011;65949;53.132;17.930;2024-02-23T03:22:18;7.30;;;3.70;;
77016;SDS011;65949;53.132;17.930;2024-02-23T03:24:45;9.10;;;3.80;;
77016;SDS011;65949;53.132;17.930;2024-02-23T03:27:11;8.00;;;3.30;;
77016;SDS011;65949;53.132;17.930;2024-02-23T03:29:38;8.50;;;3.70;;
77016;SDS011;65949;53.132;17.930;2024-02-23T03:32:06;7.30;;;3.30;;
77016;SDS011;65949;53.132;17.930;2024-02-23T03:34:32;7.20;;;3.40;;
77016;SDS011;65949;53.132;17.930;2024-02-23T03:36:59;7.80;;;3.30;;
77016;SDS011;65949;53.132;17.930;2024-02-23T03:39:28;9.00;;;3.80;;
77016;SDS011;65949;53.132;17.930;2024-02-23T03:41:55;9.80;;;3.50;;
77016;SDS011;65949;53.132;17.930;2024-02-23T03:44:22;7.00;;;3.10;;
77016;SDS011;65949;53.132;17.930;2024-02-23T03:46:49;8.00;;;3.10;;
77016;SDS011;65949;53.132;17.930;2024-02-23T03:49:16;7.40;;;3.00;;
77016;SDS011;65949;53.132;17.930;2024-02-23T03:51:43;9.00;;;3.40;;
77016;SDS011;65949;53.132;17.930;2024-02-23T03:54:09;9.00;;;3.10;;
77016;SDS011;65949;53.132;17.930;2024-02-23T03:56:39;8.40;;;3.50;;
77016;SDS011;65949;53.132;17.930;2024-02-23T03:59:08;8.70;;;3.70;;
77016;SDS011;65949;53.132;17.930;2024-02-23T04:01:38;7.00;;;3.20;;
77016;SDS011;65949;53.132;17.930;2024-02-23T04:04:05;8.60;;;3.50;;
77016;SDS011;65949;53.132;17.930;2024-02-23T04:06:33;7.90;;;3.10;;
77016;SDS011;65949;53.132;17.930;2024-02-23T04:09:00;7.30;;;3.50;;
77016;SDS011;65949;53.132;17.930;2024-02-23T04:11:26;7.30;;;3.10;;
77016;SDS011;65949;53.132;17.930;2024-02-23T04:13:53;7.60;;;3.70;;
77016;SDS011;65949;53.132;17.930;2024-02-23T04:16:22;7.80;;;3.20;;
77016;SDS011;65949;53.132;17.930;2024-02-23T04:18:52;7.60;;;3.20;;
77016;SDS011;65949;53.132;17.930;2024-02-23T04:21:20;7.50;;;3.10;;
77016;SDS011;65949;53.132;17.930;2024-02-23T04:23:46;8.30;;;3.10;;
77016;SDS011;65949;53.132;17.930;2024-02-23T04:26:13;8.70;;;3.60;;
77016;SDS011;65949;53.132;17.930;2024-02-23T04:28:40;8.00;;;3.30;;
77016;SDS011;65949;53.132;17.930;2024-02-23T04:31:08;8.70;;;3.60;;
77016;SDS011;65949;53.132;17.930;2024-02-23T04:33:36;7.90;;;3.20;;
77016;SDS011;65949;53.132;17.930;2024-02-23T04:36:04;7.70;;;3.50;;
77016;SDS011;65949;53.132;17.930;2024-02-23T04:38:32;7.40;;;3.20;;
77016;SDS011;65949;53.132;17.930;2024-02-23T04:41:02;7.00;;;2.60;;
77016;SDS011;65949;53.132;17.930;2024-02-23T04:43:33;7.10;;;3.30;;
77016;SDS011;65949;53.132;17.930;2024-02-23T04:46:00;6.90;;;2.90;;
77016;SDS011;65949;53.132;17.930;2024-02-23T04:48:27;6.40;;;2.90;;
77016;SDS011;65949;53.132;17.930;2024-02-23T04:50:53;6.70;;;3.10;;
77016;SDS011;65949;53.132;17.930;2024-02-23T04:53:20;7.00;;;2.60;;
77016;SDS011;65949;53.132;17.930;2024-02-23T04:55:47;5.90;;;2.50;;
77016;SDS011;65949;53.132;17.930;2024-02-23T04:58:13;5.70;;;2.40;;
77016;SDS011;65949;53.132;17.930;2024-02-23T05:00:40;6.70;;;2.30;;
77016;SDS011;65949;53.132;17.930;2024-02-23T05:03:06;6.70;;;2.90;;
77016;SDS011;65949;53.132;17.930;2024-02-23T05:05:35;5.90;;;2.30;;
77016;SDS011;65949;53.132;17.930;2024-02-23T05:08:01;6.00;;;2.40;;
77016;SDS011;65949;53.132;17.930;2024-02-23T05:10:28;6.10;;;2.40;;
77016;SDS011;65949;53.132;17.930;2024-02-23T05:12:55;6.90;;;2.30;;
77016;SDS011;65949;53.132;17.930;2024-02-23T05:15:22;5.70;;;2.40;;
77016;SDS011;65949;53.132;17.930;2024-02-23T05:17:48;6.70;;;2.00;;
77016;SDS011;65949;53.132;17.930;2024-02-23T05:20:15;5.00;;;1.90;;
77016;SDS011;65949;53.132;17.930;2024-02-23T05:22:42;5.50;;;2.10;;
77016;SDS011;65949;53.132;17.930;2024-02-23T05:25:08;5.70;;;2.30;;
77016;SDS011;65949;53.132;17.930;2024-02-23T05:27:35;6.40;;;2.40;;
77016;SDS011;65949;53.132;17.930;2024-02-23T05:30:02;7.10;;;2.20;;
77016;SDS011;65949;53.132;17.930;2024-02-23T05:32:29;5.10;;;1.90;;
77016;SDS011;65949;53.132;17.930;2024-02-23T05:34:56;5.70;;;1.90;;
77016;SDS011;65949;53.132;17.930;2024-02-23T05:37:23;5.50;;;1.70;;
77016;SDS011;65949;53.132;17.930;2024-02-23T05:39:50;5.40;;;2.00;;
77016;SDS011;65949;53.132;17.930;2024-02-23T05:42:17;4.60;;;1.60;;
77016;SDS011;65949;53.132;17.930;2024-02-23T05:44:44;4.60;;;1.60;;
77016;SDS011;65949;53.132;17.930;2024-02-23T05:47:11;5.00;;;1.70;;
77016;SDS011;65949;53.132;17.930;2024-02-23T05:49:40;5.70;;;1.70;;
77016;SDS011;65949;53.132;17.930;2024-02-23T05:52:07;5.10;;;1.70;;
77016;SDS011;65949;53.132;17.930;2024-02-23T05:54:33;4.80;;;1.70;;
77016;SDS011;65949;53.132;17.930;2024-02-23T05:57:00;5.50;;;1.90;;
77016;SDS011;65949;53.132;17.930;2024-02-23T05:59:27;4.90;;;1.50;;
77016;SDS011;65949;53.132;17.930;2024-02-23T06:01:54;4.30;;;1.40;;
77016;SDS011;65949;53.132;17.930;2024-02-23T06:04:23;4.50;;;1.50;;
77016;SDS011;65949;53.132;17.930;2024-02-23T06:06:50;5.60;;;1.50;;
77016;SDS011;65949;53.132;17.930;2024-02-23T06:09:17;5.20;;;1.80;;
77016;SDS011;65949;53.132;17.930;2024-02-23T06:11:43;4.30;;;1.60;;
77016;SDS011;65949;53.132;17.930;2024-02-23T06:14:10;4.40;;;1.40;;
77016;SDS011;65949;53.132;17.930;2024-02-23T06:16:37;4.30;;;1.40;;
77016;SDS011;65949;53.132;17.930;2024-02-23T06:19:04;4.50;;;1.40;;
77016;SDS011;65949;53.132;17.930;2024-02-23T06:21:31;5.20;;;1.60;;
77016;SDS011;65949;53.132;17.930;2024-02-23T06:23:58;4.40;;;1.50;;
77016;SDS011;65949;53.132;17.930;2024-02-23T06:26:25;5.60;;;1.70;;
77016;SDS011;65949;53.132;17.930;2024-02-23T06:28:52;5.50;;;1.70;;
77016;SDS011;65949;53.132;17.930;2024-02-23T06:31:18;4.90;;;1.70;;
77016;SDS011;65949;53.132;17.930;2024-02-23T06:33:45;6.70;;;2.10;;
77016;SDS011;65949;53.132;17.930;2024-02-23T06:36:15;5.60;;;1.50;;
77016;SDS011;65949;53.132;17.930;2024-02-23T06:38:42;5.00;;;1.60;;
77016;SDS011;65949;53.132;17.930;2024-02-23T06:41:09;4.90;;;1.60;;
77016;SDS011;65949;53.132;17.930;2024-02-23T06:43:37;3.70;;;1.30;;
77016;SDS011;65949;53.132;17.930;2024-02-23T06:46:05;4.00;;;1.20;;
77016;SDS011;65949;53.132;17.930;2024-02-23T06:48:34;3.50;;;1.10;;
77016;SDS011;65949;53.132;17.930;2024-02-23T06:51:02;3.70;;;1.10;;
77016;SDS011;65949;53.132;17.930;2024-02-23T06:53:31;3.90;;;0.80;;
77016;SDS011;65949;53.132;17.930;2024-02-23T06:55:58;4.60;;;1.20;;
77016;SDS011;65949;53.132;17.930;2024-02-23T06:58:25;4.10;;;0.90;;
77016;SDS011;65949;53.132;17.930;2024-02-23T07:00:52;4.50;;;1.20;;
77016;SDS011;65949;53.132;17.930;2024-02-23T07:03:18;3.30;;;0.70;;
77016;SDS011;65949;53.132;17.930;2024-02-23T07:05:45;3.20;;;0.90;;
77016;SDS011;65949;53.132;17.930;2024-02-23T07:08:13;4.90;;;1.10;;
77016;SDS011;65949;53.132;17.930;2024-02-23T07:10:40;4.00;;;0.90;;
77016;SDS011;65949;53.132;17.930;2024-02-23T07:13:07;2.90;;;0.90;;
77016;SDS011;65949;53.132;17.930;2024-02-23T07:15:34;4.30;;;0.90;;
77016;SDS011;65949;53.132;17.930;2024-02-23T07:18:02;3.10;;;0.70;;
77016;SDS011;65949;53.132;17.930;2024-02-23T07:20:29;3.40;;;0.70;;
77016;SDS011;65949;53.132;17.930;2024-02-23T07:22:55;3.30;;;0.80;;
77016;SDS011;65949;53.132;17.930;2024-02-23T07:25:22;3.30;;;1.10;;
77016;SDS011;65949;53.132;17.930;2024-02-23T07:27:50;2.80;;;0.60;;
77016;SDS011;65949;53.132;17.930;2024-02-23T07:30:17;2.90;;;0.60;;
77016;SDS011;65949;53.132;17.930;2024-02-23T07:32:44;3.10;;;1.10;;
77016;SDS011;65949;53.132;17.930;2024-02-23T07:35:11;4.30;;;0.80;;
77016;SDS011;65949;53.132;17.930;2024-02-23T07:37:38;2.40;;;0.60;;
77016;SDS011;65949;53.132;17.930;2024-02-23T07:40:04;3.30;;;0.60;;
77016;SDS011;65949;53.132;17.930;2024-02-23T07:42:32;2.70;;;0.60;;
77016;SDS011;65949;53.132;17.930;2024-02-23T07:44:59;3.30;;;0.80;;
77016;SDS011;65949;53.132;17.930;2024-02-23T07:47:25;3.00;;;0.70;;
77016;SDS011;65949;53.132;17.930;2024-02-23T07:49:56;3.00;;;0.60;;
77016;SDS011;65949;53.132;17.930;2024-02-23T07:52:22;5.50;;;0.60;;
77016;SDS011;65949;53.132;17.930;2024-02-23T07:54:53;3.30;;;0.80;;
77016;SDS011;65949;53.132;17.930;2024-02-23T07:57:20;4.40;;;0.80;;
77016;SDS011;65949;53.132;17.930;2024-02-23T07:59:47;2.90;;;0.80;;
77016;SDS011;65949;53.132;17.930;2024-02-23T08:02:14;4.00;;;0.60;;
77016;SDS011;65949;53.132;17.930;2024-02-23T08:04:42;3.60;;;0.70;;
77016;SDS011;65949;53.132;17.930;2024-02-23T08:07:09;5.30;;;0.60;;
77016;SDS011;65949;53.132;17.930;2024-02-23T08:09:36;3.40;;;0.70;;
77016;SDS011;65949;53.132;17.930;2024-02-23T08:12:03;3.30;;;0.80;;
77016;SDS011;65949;53.132;17.930;2024-02-23T08:14:30;3.30;;;0.60;;
77016;SDS011;65949;53.132;17.930;2024-02-23T08:16:57;2.80;;;0.50;;
77016;SDS011;65949;53.132;17.930;2024-02-23T08:19:24;2.30;;;0.70;;
77016;SDS011;65949;53.132;17.930;2024-02-23T08:21:51;4.30;;;0.60;;
77016;SDS011;65949;53.132;17.930;2024-02-23T08:24:17;3.40;;;0.70;;
77016;SDS011;65949;53.132;17.930;2024-02-23T08:26:44;3.20;;;0.50;;
77016;SDS011;65949;53.132;17.930;2024-02-23T08:29:10;2.60;;;0.60;;
77016;SDS011;65949;53.132;17.930;2024-02-23T08:31:37;3.70;;;0.70;;
77016;SDS011;65949;53.132;17.930;2024-02-23T08:34:04;3.70;;;0.60;;
77016;SDS011;65949;53.132;17.930;2024-02-23T08:36:31;5.10;;;0.80;;
77016;SDS011;65949;53.132;17.930;2024-02-23T08:38:57;5.30;;;1.20;;
77016;SDS011;65949;53.132;17.930;2024-02-23T08:41:24;3.40;;;0.60;;
77016;SDS011;65949;53.132;17.930;2024-02-23T08:43:51;2.20;;;0.50;;
77016;SDS011;65949;53.132;17.930;2024-02-23T08:46:17;4.20;;;0.90;;
77016;SDS011;65949;53.132;17.930;2024-02-23T08:48:46;4.20;;;0.70;;
77016;SDS011;65949;53.132;17.930;2024-02-23T08:51:13;4.00;;;0.70;;
77016;SDS011;65949;53.132;17.930;2024-02-23T08:53:40;4.10;;;0.90;;
77016;SDS011;65949;53.132;17.930;2024-02-23T08:56:07;4.70;;;0.90;;
77016;SDS011;65949;53.132;17.930;2024-02-23T08:58:34;6.60;;;1.80;;
77016;SDS011;65949;53.132;17.930;2024-02-23T09:01:01;7.80;;;2.90;;
77016;SDS011;65949;53.132;17.930;2024-02-23T09:03:30;4.10;;;1.20;;
77016;SDS011;65949;53.132;17.930;2024-02-23T09:05:58;3.40;;;0.60;;
77016;SDS011;65949;53.132;17.930;2024-02-23T09:08:24;4.00;;;1.00;;
77016;SDS011;65949;53.132;17.930;2024-02-23T09:10:51;3.30;;;0.70;;
77016;SDS011;65949;53.132;17.930;2024-02-23T09:13:18;3.80;;;1.00;;
77016;SDS011;65949;53.132;17.930;2024-02-23T09:15:44;3.20;;;0.70;;
77016;SDS011;65949;53.132;17.930;2024-02-23T09:18:11;5.50;;;1.10;;
77016;SDS011;65949;53.132;17.930;2024-02-23T09:20:37;6.10;;;1.50;;
77016;SDS011;65949;53.132;17.930;2024-02-23T09:23:04;4.50;;;1.10;;
77016;SDS011;65949;53.132;17.930;2024-02-23T09:25:31;4.80;;;0.90;;
77016;SDS011;65949;53.132;17.930;2024-02-23T09:27:58;3.70;;;1.20;;
77016;SDS011;65949;53.132;17.930;2024-02-23T09:30:25;4.00;;;0.80;;
77016;SDS011;65949;53.132;17.930;2024-02-23T09:32:51;3.60;;;0.60;;
77016;SDS011;65949;53.132;17.930;2024-02-23T09:35:18;3.30;;;0.80;;
77016;SDS011;65949;53.132;17.930;2024-02-23T09:37:45;5.40;;;1.10;;
77016;SDS011;65949;53.132;17.930;2024-02-23T09:40:12;6.40;;;1.30;;
77016;SDS011;65949;53.132;17.930;2024-02-23T09:42:41;3.90;;;1.00;;
77016;SDS011;65949;53.132;17.930;2024-02-23T09:45:08;5.90;;;1.10;;
77016;SDS011;65949;53.132;17.930;2024-02-23T09:47:38;3.70;;;0.80;;
77016;SDS011;65949;53.132;17.930;2024-02-23T09:50:06;5.20;;;0.80;;
77016;SDS011;65949;53.132;17.930;2024-02-23T09:52:34;4.30;;;0.80;;
77016;SDS011;65949;53.132;17.930;2024-02-23T09:55:01;4.10;;;1.00;;
77016;SDS011;65949;53.132;17.930;2024-02-23T09:57:30;4.70;;;0.80;;
77016;SDS011;65949;53.132;17.930;2024-02-23T09:59:56;6.30;;;1.10;;
77016;SDS011;65949;53.132;17.930;2024-02-23T10:02:24;3.80;;;0.90;;
77016;SDS011;65949;53.132;17.930;2024-02-23T10:04:51;4.20;;;0.90;;
77016;SDS011;65949;53.132;17.930;2024-02-23T10:07:21;5.00;;;0.80;;
77016;SDS011;65949;53.132;17.930;2024-02-23T10:09:47;5.10;;;1.10;;
77016;SDS011;65949;53.132;17.930;2024-02-23T10:12:15;4.10;;;1.20;;
77016;SDS011;65949;53.132;17.930;2024-02-23T10:14:42;4.40;;;1.40;;
77016;SDS011;65949;53.132;17.930;2024-02-23T10:17:09;6.80;;;2.20;;
77016;SDS011;65949;53.132;17.930;2024-02-23T10:19:35;3.40;;;0.90;;
77016;SDS011;65949;53.132;17.930;2024-02-23T10:22:02;4.20;;;1.20;;
77016;SDS011;65949;53.132;17.930;2024-02-23T10:24:29;4.70;;;1.00;;
77016;SDS011;65949;53.132;17.930;2024-02-23T10:26:56;4.20;;;1.00;;
77016;SDS011;65949;53.132;17.930;2024-02-23T10:29:23;3.60;;;1.00;;
77016;SDS011;65949;53.132;17.930;2024-02-23T10:31:51;4.70;;;1.10;;
77016;SDS011;65949;53.132;17.930;2024-02-23T10:34:19;3.70;;;1.00;;
77016;SDS011;65949;53.132;17.930;2024-02-23T10:36:46;6.60;;;1.30;;
77016;SDS011;65949;53.132;17.930;2024-02-23T10:39:17;5.50;;;1.00;;
77016;SDS011;65949;53.132;17.930;2024-02-23T10:41:58;8.50;;;1.70;;
77016;SDS011;65949;53.132;17.930;2024-02-23T10:44:29;3.80;;;0.80;;
77016;SDS011;65949;53.132;17.930;2024-02-23T10:46:58;3.90;;;1.10;;
77016;SDS011;65949;53.132;17.930;2024-02-23T10:49:29;4.30;;;1.10;;
77016;SDS011;65949;53.132;17.930;2024-02-23T10:51:57;3.00;;;0.60;;
77016;SDS011;65949;53.132;17.930;2024-02-23T10:54:25;4.60;;;0.60;;
77016;SDS011;65949;53.132;17.930;2024-02-23T10:56:52;3.70;;;0.70;;
77016;SDS011;65949;53.132;17.930;2024-02-23T10:59:22;2.30;;;0.70;;
77016;SDS011;65949;53.132;17.930;2024-02-23T11:01:49;2.20;;;0.70;;
77016;SDS011;65949;53.132;17.930;2024-02-23T11:04:18;3.80;;;1.00;;
77016;SDS011;65949;53.132;17.930;2024-02-23T11:06:51;6.00;;;1.60;;
77016;SDS011;65949;53.132;17.930;2024-02-23T11:09:21;2.80;;;0.70;;
77016;SDS011;65949;53.132;17.930;2024-02-23T11:11:56;3.50;;;0.60;;
77016;SDS011;65949;53.132;17.930;2024-02-23T11:17:04;4.10;;;0.70;;
77016;SDS011;65949;53.132;17.930;2024-02-23T11:19:37;3.60;;;0.90;;
77016;SDS011;65949;53.132;17.930;2024-02-23T11:22:09;2.80;;;0.80;;
77016;SDS011;65949;53.132;17.930;2024-02-23T11:24:41;3.10;;;0.80;;
77016;SDS011;65949;53.132;17.930;2024-02-23T11:27:14;7.20;;;3.30;;
77016;SDS011;65949;53.132;17.930;2024-02-23T11:29:47;7.80;;;3.60;;
77016;SDS011;65949;53.132;17.930;2024-02-23T11:32:16;3.80;;;1.10;;
77016;SDS011;65949;53.132;17.930;2024-02-23T11:34:56;2.30;;;0.60;;
77016;SDS011;65949;53.132;17.930;2024-02-23T11:37:23;2.80;;;0.70;;
77016;SDS011;65949;53.132;17.930;2024-02-23T11:39:50;1.50;;;0.40;;
77016;SDS011;65949;53.132;17.930;2024-02-23T11:42:17;2.80;;;1.00;;
77016;SDS011;65949;53.132;17.930;2024-02-23T11:44:44;3.00;;;0.80;;
77016;SDS011;65949;53.132;17.930;2024-02-23T11:47:11;3.00;;;0.60;;
77016;SDS011;65949;53.132;17.930;2024-02-23T11:49:37;2.20;;;0.60;;
77016;SDS011;65949;53.132;17.930;2024-02-23T11:52:04;2.20;;;0.70;;
77016;SDS011;65949;53.132;17.930;2024-02-23T11:54:31;3.40;;;0.60;;
77016;SDS011;65949;53.132;17.930;2024-02-23T11:56:57;2.90;;;0.70;;
77016;SDS011;65949;53.132;17.930;2024-02-23T11:59:24;2.90;;;0.70;;
77016;SDS011;65949;53.132;17.930;2024-02-23T12:01:51;3.40;;;0.70;;
77016;SDS011;65949;53.132;17.930;2024-02-23T12:04:18;4.30;;;1.20;;
77016;SDS011;65949;53.132;17.930;2024-02-23T12:06:44;4.00;;;1.20;;
77016;SDS011;65949;53.132;17.930;2024-02-23T12:09:12;4.10;;;1.20;;
77016;SDS011;65949;53.132;17.930;2024-02-23T12:11:40;4.30;;;1.10;;
77016;SDS011;65949;53.132;17.930;2024-02-23T12:14:07;2.90;;;0.60;;
77016;SDS011;65949;53.132;17.930;2024-02-23T12:16:35;3.60;;;0.90;;
77016;SDS011;65949;53.132;17.930;2024-02-23T12:19:05;3.90;;;1.30;;
77016;SDS011;65949;53.132;17.930;2024-02-23T12:21:33;3.30;;;1.10;;
77016;SDS011;65949;53.132;17.930;2024-02-23T12:24:03;3.00;;;0.70;;
77016;SDS011;65949;53.132;17.930;2024-02-23T12:26:32;3.40;;;0.90;;
77016;SDS011;65949;53.132;17.930;2024-02-23T12:29:02;5.10;;;1.30;;
77016;SDS011;65949;53.132;17.930;2024-02-23T12:31:31;4.30;;;1.00;;
77016;SDS011;65949;53.132;17.930;2024-02-23T12:33:58;4.10;;;0.90;;
77016;SDS011;65949;53.132;17.930;2024-02-23T12:36:25;3.90;;;0.70;;
77016;SDS011;65949;53.132;17.930;2024-02-23T12:38:52;3.00;;;0.80;;
77016;SDS011;65949;53.132;17.930;2024-02-23T12:41:18;2.90;;;0.80;;
77016;SDS011;65949;53.132;17.930;2024-02-23T12:43:45;3.10;;;0.80;;
77016;SDS011;65949;53.132;17.930;2024-02-23T12:46:11;2.90;;;0.90;;
77016;SDS011;65949;53.132;17.930;2024-02-23T12:48:40;3.70;;;0.90;;
77016;SDS011;65949;53.132;17.930;2024-02-23T12:51:07;4.90;;;1.10;;
77016;SDS011;65949;53.132;17.930;2024-02-23T12:53:37;2.40;;;0.60;;
77016;SDS011;65949;53.132;17.930;2024-02-23T12:56:06;4.30;;;1.10;;
77016;SDS011;65949;53.132;17.930;2024-02-23T12:58:38;4.40;;;1.10;;
77016;SDS011;65949;53.132;17.930;2024-02-23T13:01:06;2.90;;;0.70;;
77016;SDS011;65949;53.132;17.930;2024-02-23T13:03:34;3.70;;;0.80;;
77016;SDS011;65949;53.132;17.930;2024-02-23T13:06:02;4.80;;;1.00;;
77016;SDS011;65949;53.132;17.930;2024-02-23T13:08:30;5.50;;;1.20;;
77016;SDS011;65949;53.132;17.930;2024-02-23T13:10:57;3.60;;;0.90;;
77016;SDS011;65949;53.132;17.930;2024-02-23T13:13:24;3.50;;;1.10;;
77016;SDS011;65949;53.132;17.930;2024-02-23T13:15:52;4.60;;;1.40;;
77016;SDS011;65949;53.132;17.930;2024-02-23T13:18:20;5.50;;;1.20;;
77016;SDS011;65949;53.132;17.930;2024-02-23T13:20:46;3.50;;;1.00;;
77016;SDS011;65949;53.132;17.930;2024-02-23T13:23:13;4.10;;;0.90;;
77016;SDS011;65949;53.132;17.930;2024-02-23T13:25:42;4.10;;;1.20;;
77016;SDS011;65949;53.132;17.930;2024-02-23T13:28:09;3.10;;;0.70;;
77016;SDS011;65949;53.132;17.930;2024-02-23T13:30:36;3.50;;;0.80;;
77016;SDS011;65949;53.132;17.930;2024-02-23T13:33:03;2.60;;;0.90;;
77016;SDS011;65949;53.132;17.930;2024-02-23T13:35:32;2.60;;;0.50;;
77016;SDS011;65949;53.132;17.930;2024-02-23T13:37:59;3.30;;;0.80;;
77016;SDS011;65949;53.132;17.930;2024-02-23T13:40:26;3.50;;;0.60;;
77016;SDS011;65949;53.132;17.930;2024-02-23T13:42:53;3.00;;;0.60;;
77016;SDS011;65949;53.132;17.930;2024-02-23T13:45:19;4.50;;;0.80;;
77016;SDS011;65949;53.132;17.930;2024-02-23T13:47:57;5.00;;;1.30;;
77016;SDS011;65949;53.132;17.930;2024-02-23T13:50:25;13.00;;;4.20;;
77016;SDS011;65949;53.132;17.930;2024-02-23T13:52:53;12.80;;;5.30;;
77016;SDS011;65949;53.132;17.930;2024-02-23T13:55:21;7.20;;;3.10;;
77016;SDS011;65949;53.132;17.930;2024-02-23T13:57:48;5.70;;;1.80;;
77016;SDS011;65949;53.132;17.930;2024-02-23T14:00:15;4.00;;;1.20;;
77016;SDS011;65949;53.132;17.930;2024-02-23T14:02:43;4.90;;;1.30;;
77016;SDS011;65949;53.132;17.930;2024-02-23T14:05:11;5.00;;;1.00;;
77016;SDS011;65949;53.132;17.930;2024-02-23T14:07:38;4.80;;;1.30;;
77016;SDS011;65949;53.132;17.930;2024-02-23T14:10:05;4.60;;;1.10;;
77016;SDS011;65949;53.132;17.930;2024-02-23T14:12:33;5.80;;;0.80;;
77016;SDS011;65949;53.132;17.930;2024-02-23T14:15:00;3.40;;;0.60;;
77016;SDS011;65949;53.132;17.930;2024-02-23T14:17:27;3.70;;;0.80;;
77016;SDS011;65949;53.132;17.930;2024-02-23T14:19:54;4.30;;;1.10;;
77016;SDS011;65949;53.132;17.930;2024-02-23T14:22:20;4.20;;;1.00;;
77016;SDS011;65949;53.132;17.930;2024-02-23T14:24:47;3.40;;;0.60;;
77016;SDS011;65949;53.132;17.930;2024-02-23T14:27:14;3.40;;;0.60;;
77016;SDS011;65949;53.132;17.930;2024-02-23T14:29:41;2.80;;;0.60;;
77016;SDS011;65949;53.132;17.930;2024-02-23T14:32:08;4.60;;;0.90;;
77016;SDS011;65949;53.132;17.930;2024-02-23T14:34:35;3.80;;;0.90;;